Aérodrome :
LOGIN :

S'inscrire | Disclaimer

   EN    FR    IT 

 










Légende :    VFR   VFR Marginal   IFR   IFR Intensif   IFR Très Intensif
Visi : 
Plafond : 
>= 8 km
>= 3000ft
5 à 8 km
1000 à 3000 ft
1500m à 5 km
500 à 1000 ft
800 à 1500m
200 à 500 ft
< 800m
< 200 ft
Symboles :   Orages  Brouillard  Fortes neiges  Fortes précipitations  Vent > 20 kt
SIGMETs :   Divers  Orages  Givrage  Turbulence  Onde Orograph.  Cendres Volcan.







- Altitude de l'aérodrome : 458 ft
- Voir les cartes d'approche


LFSI - St-Dizier

DERNIER METAR :
  • 230030Z AUTO 31007KT 250V350 8000 -RA OVC006/// ///CB 10/08 Q1021

METARs EXPIRÉS :
  • 230000Z AUTO 27007KT 7000 -RA SCT010/// BKN016/// BKN029/// ///TCU 10/08 Q1021
  • 222330Z AUTO 28009KT 240V320 7000 RA BKN010/// BKN019/// BKN027/// ///TCU 09/08 Q1021
  • 222300Z AUTO 24009KT 9999 -RA FEW012/// BKN019/// BKN037/// ///TCU 09/08 Q1021
  • 222230Z AUTO 25009KT 220V280 9999 -RA SCT016/// SCT028/// BKN058/// ///TCU 09/07 Q1021
  • 222200Z AUTO 25006KT 9999 FEW009/// OVC016/// ///TCU 09/07 Q1021

TAF TAF LFSI
Valide du 22 à 21h jusqu'au 23 à 21h UTC


222000Z 2221/2321 24012KT 9999 SCT020
BECMG 2221/2223 BKN012
TEMPO 2301/2306 4000 RA BKN008
Pas de NOTAMs connus pour ce terrain.
1 SIGMET publié pour la FIR Paris (LFFF) :
 
Turbulence forte
LFFF SIGMET 6 VALID 222300/230300 LFPW
LFFF PARIS FIR/UIR SEV TURB FCST E OF LINE N5045 E00315 - N4745 E00445 FL220/320 MOV E 15KT NC=



MET'MAP, la Météo Aéronautique d'un coup d'oeil ! - Copyright ORBIFLY Décembre 2007 - Disclaimer

ORBIFLY MET'MAP TEAM :

Programmation & Développement : Alexandra Zaïnal
Conception & Développement : Baudouin d'Aumeries
Co-Programmation & Développement : Marc-Olivier Méhu
Soutien technique & logistique : Manuel Goepfert

Contact : metmap@orbifly.com




SOURCES & CREDITS :

   NOAA